カトマンズ の空港の天気 - METARとTAF

トリブバン国際空港 ( VNKT / KTM ) - ネパール カトマンズ
飛行場実況気象(Metar)
観測時間06/19 22:05 NPT (06/19 16:20 UTC)
風向・風速南東 2m/s
視程7000m
天気現象
少しの雲 雲底高度 610m
気温24℃
湿度78%
気圧1010hPa
METARVNKT 191620Z 13003KT 090V190 7000 FEW020 24/20 Q1010 NOSIG
過去の天気等 Google飛行場航空写真 Wunderground天気予報

過去48時間のMETAR

飛行場予報(TAF)
発表時間: 6/19 16:45 NPT (6/19 11:00 UTC)
予報対象時間: 19日17時 NPT ~ 20日17時 NPT
風向・風速西 4m/s
視程8000m
少しの雲 雲底高度 610m
全天の4割程度の雲 雲底高度 910m
19日17時 NPT から 確率 40% で
風向・風速不定 6m/s
視程4000m
天気現象弱い雷雨
少しの積乱雲 雲底高度 760m
全天の8割程度の雲 雲底高度 3050m
19日19時 NPT ~ 19日20時 NPT に徐々に
風向・風速不定 1m/s
視程6000m
少しの雲 雲底高度 460m
全天の4割程度の雲 雲底高度 910m
20日5時 NPT ~ 20日7時 NPT に徐々に
視程4000m
天気現象もや
少しの雲 雲底高度 460m
20日9時 NPT ~ 20日10時 NPT に徐々に
風向・風速南南東 2m/s
視程6000m
少しの雲 雲底高度 610m
20日12時 NPT ~ 20日13時 NPT に徐々に
風向・風速西 4m/s
視程7000m
少しの雲 雲底高度 610m
全天の4割程度の雲 雲底高度 910m
20日13時 NPT から 確率 40% で
風向・風速不定 6m/s
視程4000m
天気現象弱い雷雨
少しの積乱雲 雲底高度 760m
全天の8割程度の雲 雲底高度 3050m
TAF VNKT 191100Z 1912/2012 28008KT 8000 FEW020 SCT030
PROB40 1912/1918 VRB12KT 4000 -TSRA FEW025CB BKN100
BECMG 1914/1915 VRB02KT 6000 FEW015 SCT030
BECMG 2000/2002 4000 BR FEW015
BECMG 2004/2005 16004KT 6000 FEW020
BECMG 2007/2008 28008KT 7000 FEW020 SCT030
PROB40 2008/2014 VRB12KT 4000 -TSRA FEW025CB BKN100